createdAt,value
2022-12-19T00:39:52.852Z,100972.80
2022-12-19T00:42:19.838Z,100970.52
2022-12-19T00:44:48.848Z,100963.66
2022-12-19T00:47:15.716Z,100958.27
2022-12-19T00:49:43.209Z,100957.80
2022-12-19T00:52:11.273Z,100960.47
2022-12-19T00:54:38.326Z,100957.60
2022-12-19T00:57:05.833Z,100953.88
2022-12-19T00:59:32.916Z,100956.27
2022-12-19T01:01:59.995Z,100954.43
2022-12-19T01:04:28.538Z,100955.89
2022-12-19T01:06:59.623Z,100950.52
2022-12-19T01:09:32.363Z,100953.39
2022-12-19T01:12:18.283Z,100953.74
2022-12-19T01:14:45.199Z,100954.30
2022-12-19T01:17:12.236Z,100948.64
2022-12-19T01:19:44.047Z,100948.20
2022-12-19T01:22:13.264Z,100949.25
2022-12-19T01:24:40.231Z,100954.55
2022-12-19T01:27:07.585Z,100950.88
2022-12-19T01:29:34.769Z,100953.89
2022-12-19T01:32:04.836Z,100952.63
2022-12-19T01:34:31.960Z,100946.79
2022-12-19T01:36:59.060Z,100939.09
2022-12-19T01:39:26.858Z,100933.58
2022-12-19T01:41:57.789Z,100927.46
2022-12-19T01:44:25.747Z,100930.86
2022-12-19T01:46:59.474Z,100936.98
2022-12-19T01:49:31.479Z,100929.34
2022-12-19T01:52:00.280Z,100925.82
2022-12-19T01:54:29.974Z,100925.40
2022-12-19T01:56:57.733Z,100921.48
2022-12-19T01:59:45.681Z,100920.43
2022-12-19T02:02:24.894Z,100917.89
2022-12-19T02:04:51.831Z,100917.44
2022-12-19T02:07:19.050Z,100922.61
2022-12-19T02:09:47.172Z,100925.66
2022-12-19T02:12:21.394Z,100930.17
2022-12-19T02:14:48.401Z,100930.95
2022-12-19T02:17:23.033Z,100932.31
2022-12-19T02:20:22.637Z,100930.11
2022-12-19T02:23:08.073Z,100930.12
2022-12-19T02:25:49.231Z,100935.48
2022-12-19T02:28:55.955Z,100935.69
2022-12-19T02:31:30.523Z,100932.48
2022-12-19T02:34:19.865Z,100929.89
2022-12-19T02:37:02.934Z,100931.61
2022-12-19T02:39:39.828Z,100927.48
2022-12-19T02:42:06.773Z,100926.70
2022-12-19T02:44:36.773Z,100925.35
2022-12-19T02:47:05.784Z,100925.94
2022-12-19T02:49:34.954Z,100929.26
2022-12-19T02:52:20.545Z,100925.27
2022-12-19T02:54:57.846Z,100925.81
2022-12-19T02:57:30.848Z,100920.69
2022-12-19T03:00:04.474Z,100920.12
2022-12-19T03:02:41.841Z,100917.13
2022-12-19T03:05:46.114Z,100919.89
2022-12-19T03:08:38.777Z,100916.80
2022-12-19T03:11:07.899Z,100917.61
2022-12-19T03:13:44.427Z,100919.85
2022-12-19T03:16:11.893Z,100917.08
2022-12-19T03:18:38.971Z,100919.31
2022-12-19T03:21:22.120Z,100914.91
2022-12-19T03:23:49.534Z,100918.09
2022-12-19T03:26:21.566Z,100923.88
2022-12-19T03:28:51.459Z,100925.92
2022-12-19T03:31:19.798Z,100923.98
2022-12-19T03:33:46.781Z,100928.88
2022-12-19T03:36:16.111Z,100926.20
2022-12-19T03:38:44.008Z,100923.52
2022-12-19T03:41:11.778Z,100924.55
2022-12-19T03:43:38.671Z,100923.76
2022-12-19T03:46:19.631Z,100924.48
2022-12-19T03:48:48.357Z,100919.36
2022-12-19T03:51:27.246Z,100921.52
2022-12-19T03:54:00.980Z,100923.34
2022-12-19T03:56:39.116Z,100929.48
2022-12-19T03:59:21.384Z,100930.41
2022-12-19T04:01:48.397Z,100926.93
2022-12-19T04:04:15.631Z,100927.20
2022-12-19T04:06:42.836Z,100933.43
2022-12-19T04:09:09.821Z,100936.81
2022-12-19T04:11:42.260Z,100941.04
2022-12-19T04:14:12.408Z,100947.67
2022-12-19T04:16:50.862Z,100942.19
2022-12-19T04:19:25.527Z,100932.99
2022-12-19T04:21:56.624Z,100935.19
2022-12-19T04:24:26.484Z,100934.69
2022-12-19T04:26:54.385Z,100940.70
2022-12-19T04:29:21.353Z,100945.42
2022-12-19T04:31:48.232Z,100950.79
2022-12-19T04:34:17.657Z,100952.16
2022-12-19T04:36:44.563Z,100951.89
2022-12-19T04:39:11.584Z,100951.86
2022-12-19T04:41:38.512Z,100952.16
2022-12-19T04:44:05.529Z,100950.66
2022-12-19T04:46:32.641Z,100950.05
2022-12-19T04:48:59.523Z,100947.20
2022-12-19T04:51:26.604Z,100950.29
2022-12-19T04:53:53.455Z,100947.88
2022-12-19T04:56:22.286Z,100951.26
2022-12-19T04:58:49.132Z,100948.36
2022-12-19T05:01:16.062Z,100950.41
2022-12-19T05:03:43.218Z,100957.02
2022-12-19T05:06:11.885Z,100953.16
2022-12-19T05:08:40.348Z,100949.63
2022-12-19T05:11:07.776Z,100955.42
2022-12-19T05:13:34.793Z,100959.17
2022-12-19T05:16:06.175Z,100962.27
2022-12-19T05:18:33.927Z,100959.03
2022-12-19T05:21:00.884Z,100958.98
2022-12-19T05:23:27.838Z,100957.00
2022-12-19T05:25:57.891Z,100952.09
2022-12-19T05:28:24.875Z,100951.39
2022-12-19T05:30:52.637Z,100946.73
2022-12-19T05:33:19.713Z,100944.50
2022-12-19T05:35:46.678Z,100940.98
2022-12-19T05:38:13.626Z,100944.77
2022-12-19T05:40:44.117Z,100944.70
2022-12-19T05:43:10.931Z,100947.88
2022-12-19T05:45:41.041Z,100948.50
2022-12-19T05:48:09.509Z,100948.67
2022-12-19T05:50:36.869Z,100950.47
2022-12-19T05:53:08.969Z,100948.75
2022-12-19T05:55:35.866Z,100953.48
2022-12-19T05:58:02.810Z,100955.27
2022-12-19T06:00:29.736Z,100951.48
2022-12-19T06:02:56.721Z,100955.09
2022-12-19T06:05:23.693Z,100953.52
2022-12-19T06:07:51.001Z,100951.81
2022-12-19T06:10:17.955Z,100954.45
2022-12-19T06:12:44.804Z,100960.25
2022-12-19T06:15:12.211Z,100958.55
2022-12-19T06:17:39.116Z,100958.36
2022-12-19T06:20:06.814Z,100962.14
2022-12-19T06:22:34.318Z,100958.13
2022-12-19T06:25:01.230Z,100964.56
2022-12-19T06:27:28.082Z,100967.51
2022-12-19T06:29:55.139Z,100971.45
2022-12-19T06:32:22.025Z,100974.45
2022-12-19T06:35:04.184Z,100977.02
2022-12-19T06:37:31.637Z,100976.29
2022-12-19T06:39:58.503Z,100975.53
2022-12-19T06:42:25.765Z,100980.88
2022-12-19T06:44:54.146Z,100984.11
2022-12-19T06:47:22.061Z,100986.51
2022-12-19T06:49:49.234Z,100991.65
2022-12-19T06:52:16.663Z,100995.18
2022-12-19T06:54:43.511Z,101000.33
2022-12-19T06:57:10.551Z,100993.45
2022-12-19T06:59:37.764Z,100988.92
2022-12-19T07:02:27.917Z,100989.94
2022-12-19T07:04:57.920Z,100995.05
2022-12-19T07:07:24.754Z,101000.79
2022-12-19T07:09:51.562Z,100999.41
2022-12-19T07:12:18.496Z,101002.36
2022-12-19T07:14:50.209Z,101005.12
2022-12-19T07:17:19.970Z,101004.45
2022-12-19T07:19:46.841Z,101007.24
2022-12-19T07:22:13.757Z,101001.30
2022-12-19T07:24:40.616Z,100997.05
2022-12-19T07:27:07.541Z,101000.86
2022-12-19T07:29:34.637Z,101003.40
2022-12-19T07:32:01.786Z,101008.73
2022-12-19T07:34:30.173Z,101011.98
2022-12-19T07:36:57.075Z,101015.20
2022-12-19T07:39:24.382Z,101009.00
2022-12-19T07:41:51.205Z,101006.34
2022-12-19T07:44:26.693Z,101002.47
2022-12-19T07:46:55.331Z,101003.47
2022-12-19T07:49:22.931Z,100999.81
2022-12-19T07:51:50.033Z,100997.90
2022-12-19T07:54:16.924Z,100997.79
2022-12-19T07:56:44.189Z,100995.48
2022-12-19T07:59:12.949Z,100996.63
2022-12-19T09:25:07.081Z,100943.71
2022-12-19T09:27:53.726Z,100935.69
2022-12-19T09:30:22.687Z,100930.06
2022-12-19T09:32:49.686Z,100925.93
2022-12-19T09:35:16.637Z,100916.60
2022-12-19T09:37:43.547Z,100912.82
2022-12-19T09:40:12.871Z,100908.20
2022-12-19T09:42:58.004Z,100905.88
2022-12-19T09:45:31.888Z,100901.33
2022-12-19T09:48:01.364Z,100903.09
2022-12-19T09:50:50.892Z,100904.56
2022-12-19T09:53:25.399Z,100903.41
2022-12-19T09:55:52.502Z,100895.59
2022-12-19T09:58:32.288Z,100887.02
2022-12-19T10:01:02.029Z,100880.14
2022-12-19T10:03:40.305Z,100878.42
2022-12-19T10:07:09.383Z,100868.50
2022-12-19T10:09:20.262Z,100870.34
2022-12-19T10:12:38.547Z,100866.55
2022-12-19T10:15:16.382Z,100872.43
2022-12-19T10:17:58.451Z,100869.61
2022-12-19T10:20:38.879Z,100857.82
2022-12-19T10:23:23.457Z,100849.22
2022-12-19T10:25:52.721Z,100852.46
2022-12-19T10:28:38.552Z,100848.05
2022-12-19T10:31:23.029Z,100843.77
2022-12-19T10:34:01.552Z,100840.84
2022-12-19T10:36:55.987Z,100834.44
2022-12-19T10:39:30.396Z,100830.98
2022-12-19T10:42:37.338Z,100820.36
2022-12-19T10:45:10.126Z,100819.39
2022-12-19T10:47:37.403Z,100812.43
2022-12-19T10:50:09.475Z,100810.25
2022-12-19T10:53:11.106Z,100810.44
2022-12-19T10:55:50.066Z,100810.70
2022-12-19T10:58:24.407Z,100803.39
2022-12-19T11:00:54.250Z,100796.64
2022-12-19T11:03:21.482Z,100796.36
2022-12-19T11:05:57.108Z,100790.98
2022-12-19T11:08:32.159Z,100785.82
2022-12-19T11:12:35.562Z,100782.60
2022-12-19T11:19:44.457Z,100776.09
2022-12-19T11:20:55.474Z,100772.04
2022-12-19T11:28:07.108Z,100766.36
2022-12-19T11:29:31.408Z,100764.23
2022-12-19T11:30:07.044Z,100769.15
2022-12-19T11:30:47.661Z,100768.64
2022-12-19T11:33:28.123Z,100770.23
2022-12-19T11:35:56.911Z,100767.84
2022-12-19T11:38:32.133Z,100768.29
2022-12-19T11:40:59.324Z,100764.33
2022-12-19T11:43:46.631Z,100756.16
2022-12-19T11:46:47.839Z,100753.66
2022-12-19T11:49:17.698Z,100754.34
2022-12-19T11:52:54.074Z,100754.48
2022-12-19T11:55:26.835Z,100752.86
2022-12-19T11:57:54.215Z,100752.26
2022-12-19T12:00:23.180Z,100749.48
2022-12-19T12:02:53.157Z,100744.29
2022-12-19T12:05:35.091Z,100748.05
2022-12-19T12:09:13.199Z,100745.63
2022-12-19T12:16:34.938Z,100745.70
2022-12-19T12:24:06.215Z,100741.74
2022-12-19T12:26:30.554Z,100741.56
2022-12-19T12:31:23.085Z,100737.05
2022-12-19T12:31:52.577Z,100727.27
2022-12-19T12:31:54.113Z,100735.20
2022-12-19T12:31:57.585Z,100732.55
2022-12-19T12:35:48.782Z,100722.33
2022-12-19T12:38:48.169Z,100731.30
2022-12-19T12:42:05.205Z,100727.64
2022-12-19T12:47:25.868Z,100729.14
2022-12-19T12:49:56.457Z,100734.48
2022-12-19T12:52:27.692Z,100738.52
2022-12-19T12:54:54.757Z,100736.37
2022-12-19T12:57:42.102Z,100738.86
2022-12-19T13:00:22.826Z,100734.05
2022-12-19T13:02:57.054Z,100728.86
2022-12-19T13:05:25.723Z,100729.43
2022-12-19T13:07:53.925Z,100727.20
2022-12-19T13:10:27.220Z,100735.52
2022-12-19T13:13:02.194Z,100731.34
2022-12-19T13:15:29.968Z,100736.77
2022-12-19T13:17:56.893Z,100734.27
2022-12-19T13:20:23.758Z,100736.99
2022-12-19T13:23:01.097Z,100734.02
2022-12-19T13:25:34.514Z,100731.81
2022-12-19T13:28:01.422Z,100724.60
2022-12-19T13:30:32.486Z,100717.11
2022-12-19T13:33:19.488Z,100711.30
2022-12-19T13:39:57.009Z,100714.52
2022-12-19T13:41:47.728Z,100711.52
2022-12-19T13:44:14.888Z,100707.77
2022-12-19T13:46:45.299Z,100697.35
2022-12-19T13:49:31.828Z,100688.77
2022-12-19T13:52:01.439Z,100695.30
2022-12-19T13:54:38.168Z,100694.91
2022-12-19T14:00:21.834Z,100690.42
2022-12-19T14:03:11.503Z,100693.23
2022-12-19T14:06:14.665Z,100681.91
2022-12-19T14:08:25.679Z,100680.90
2022-12-19T14:11:39.309Z,100677.74
2022-12-19T14:14:12.643Z,100671.85
2022-12-19T14:16:45.554Z,100664.20
2022-12-19T14:19:27.794Z,100661.33
2022-12-19T14:22:09.572Z,100660.63
2022-12-19T14:24:41.711Z,100655.08
2022-12-19T14:30:30.532Z,100653.39
2022-12-19T14:33:44.991Z,100651.09
2022-12-19T14:36:12.266Z,100655.14
2022-12-19T14:39:27.690Z,100661.58
2022-12-19T14:41:39.503Z,100660.23
2022-12-19T14:52:25.345Z,100658.41
2022-12-19T14:54:01.314Z,100659.95
2022-12-19T14:54:07.367Z,100654.61
2022-12-19T14:54:28.276Z,100648.72
2022-12-19T14:56:16.019Z,100643.06
2022-12-19T14:58:54.462Z,100642.89
2022-12-19T15:01:31.985Z,100641.14
2022-12-19T15:04:47.662Z,100640.65
2022-12-19T15:07:06.945Z,100647.25
2022-12-19T15:11:08.037Z,100653.60
2022-12-19T15:14:47.505Z,100654.70
2022-12-19T15:16:02.554Z,100658.95
2022-12-19T15:18:33.048Z,100655.83
2022-12-19T15:21:04.954Z,100656.77
2022-12-19T15:23:32.408Z,100650.66
2022-12-19T15:26:07.088Z,100644.79
2022-12-19T15:28:40.620Z,100636.52
2022-12-19T15:31:32.443Z,100639.48
2022-12-19T15:34:32.883Z,100634.23
2022-12-19T15:36:46.387Z,100644.98
2022-12-19T15:39:15.118Z,100657.21
2022-12-19T15:41:42.328Z,100662.77
2022-12-19T15:44:13.700Z,100668.02
2022-12-19T15:46:48.156Z,100663.90
2022-12-19T15:49:17.536Z,100659.34
2022-12-19T15:51:44.964Z,100659.77
2022-12-19T19:01:41.786Z,100447.23
2022-12-19T19:04:12.159Z,100439.09
2022-12-19T19:06:40.280Z,100428.36
2022-12-19T19:09:16.148Z,100425.05
2022-12-19T19:12:00.151Z,100425.30
2022-12-19T19:14:27.063Z,100424.86
2022-12-19T19:16:53.854Z,100417.04
2022-12-19T19:19:22.149Z,100408.89
2022-12-19T19:21:49.035Z,100404.52
2022-12-19T19:24:17.657Z,100399.88
2022-12-19T19:26:44.677Z,100394.62
2022-12-19T19:29:13.682Z,100393.98
2022-12-19T19:31:41.389Z,100389.95
2022-12-19T19:34:11.582Z,100384.76
2022-12-19T19:36:38.495Z,100396.36
2022-12-19T19:39:05.344Z,100404.02
2022-12-19T19:41:34.455Z,100404.78
2022-12-19T19:44:01.455Z,100400.30
2022-12-19T19:46:28.612Z,100395.11
2022-12-19T19:48:55.614Z,100395.98
2022-12-19T19:51:22.477Z,100389.88
2022-12-19T19:53:49.393Z,100388.27
2022-12-19T19:56:16.466Z,100380.70
2022-12-19T19:58:43.392Z,100376.10
2022-12-19T20:01:11.233Z,100369.91
2022-12-19T20:03:40.193Z,100376.31
2022-12-19T20:06:07.724Z,100375.91
2022-12-19T20:08:40.155Z,100375.52
2022-12-19T20:11:08.391Z,100367.58
2022-12-19T20:13:35.376Z,100363.93
2022-12-19T20:16:07.460Z,100368.19
2022-12-19T20:18:35.416Z,100369.21
2022-12-19T20:21:03.252Z,100366.58
2022-12-19T20:23:34.131Z,100359.79
2022-12-19T20:26:01.773Z,100354.52
2022-12-19T20:28:30.079Z,100350.20
2022-12-19T20:30:56.955Z,100346.46
2022-12-19T20:33:24.608Z,100342.59
2022-12-19T20:35:55.879Z,100342.09
2022-12-19T20:38:22.772Z,100341.86
2022-12-19T20:40:51.950Z,100340.54
2022-12-19T20:43:18.798Z,100336.23
2022-12-19T20:45:45.634Z,100340.81
2022-12-19T20:48:12.804Z,100335.59
2022-12-19T20:50:43.222Z,100329.33
2022-12-19T20:53:10.646Z,100333.19
2022-12-19T20:55:37.607Z,100327.88
2022-12-19T20:58:04.652Z,100315.66
2022-12-19T21:00:31.607Z,100318.05
2022-12-19T21:05:52.508Z,100320.54
2022-12-19T21:08:21.044Z,100316.65
2022-12-19T21:10:48.382Z,100317.91
2022-12-19T21:13:15.393Z,100321.52
2022-12-19T21:15:42.325Z,100317.81
2022-12-19T21:18:09.833Z,100314.05
2022-12-19T21:20:37.365Z,100313.13
2022-12-19T21:23:04.714Z,100317.40
2022-12-19T21:25:32.131Z,100316.67
2022-12-19T21:27:59.325Z,100310.40
2022-12-19T21:30:26.259Z,100298.45
2022-12-19T21:32:53.639Z,100292.59
2022-12-19T21:35:20.588Z,100285.56
2022-12-19T21:37:51.298Z,100276.52
2022-12-19T21:40:19.210Z,100271.30
2022-12-19T21:42:46.144Z,100276.11
2022-12-19T21:45:14.915Z,100276.88
2022-12-19T21:47:43.071Z,100278.02
2022-12-19T21:50:11.246Z,100281.66
2022-12-19T21:52:38.245Z,100272.96
2022-12-19T21:55:06.038Z,100268.92
2022-12-19T21:57:33.043Z,100270.73
2022-12-19T21:59:59.940Z,100268.61
2022-12-19T22:02:27.241Z,100273.30
2022-12-19T22:04:54.293Z,100268.31
2022-12-19T22:07:21.172Z,100264.48
2022-12-19T22:09:48.075Z,100260.04
2022-12-19T22:12:15.373Z,100259.59
2022-12-19T22:14:43.540Z,100259.08
2022-12-19T22:17:10.441Z,100250.45
2022-12-19T22:19:37.446Z,100246.15
2022-12-19T22:22:04.937Z,100252.36
